Es liegt ein Kommunikationsproblem . Gehen Sie direkt zur Website Meteoalarm : www.meteoalarm.eu und überprüfen Sie die Wetterwarnungen..


Besuchen Sie unsere anderen Wetter Stationen:

Template documentation
and downloads

And another site



METAR-Meldungen aus der Umgebung


Warning: A non-numeric value encountered in /is/htdocs/wp10906056_0YHW7Q9XB7/www/weather28/metar/metarDisplay.php on line 166

Warning: A non-numeric value encountered in /is/htdocs/wp10906056_0YHW7Q9XB7/www/weather28/metar/metarDisplay.php on line 166

Warning: A non-numeric value encountered in /is/htdocs/wp10906056_0YHW7Q9XB7/www/weather28/metar/metarDisplay.php on line 166

Warning: A non-numeric value encountered in /is/htdocs/wp10906056_0YHW7Q9XB7/www/weather28/metar/metarDisplay.php on line 166

Warning: A non-numeric value encountered in /is/htdocs/wp10906056_0YHW7Q9XB7/www/weather28/metar/metarDisplay.php on line 166

Warning: A non-numeric value encountered in /is/htdocs/wp10906056_0YHW7Q9XB7/www/weather28/metar/metarDisplay.php on line 166
   
EBAW - Antwerp
Aktualisierung: 23-02-2019 03:50
Nebel, Klar  
Nebel, Klar  
   Wind: Osten 3.7 km/h
Wind: Osten 3.7 km/h
Temperatur: 4°C
Taupunkt: 3°C
Luftfeuchte: 93%
Luftdruck: 1037 hPa
Bewölkt: Klar
Sichtbarkeit: 0 km
Bewölkung: Klar
EBAW 230250Z AUTO 09002KT 0400 R11/0450N R29/0550U FG NCD 04/03 Q1037
EBLG - Liège
Aktualisierung: 23-02-2019 03:50
Teilweise bewölkt  
Teilweise bewölkt  
   Wind: variiert 3.7 km/h<br />Gust to 3.7 km/h
Wind: variiert 3.7 km/h
Gust to 3.7 km/h
Temperatur: 5°C
Taupunkt: 4°C
Luftfeuchte: 93%
Luftdruck: 1037 hPa
Bewölkt: Teilweise bewölkt
Sichtbarkeit: 8 km
Bewölkung: Teilweise bewölkt
EBLG 230250Z VRB02G13KT 8000 NSC 05/04 Q1037 NOSIG
EBCV - Mons/Bergen
Aktualisierung: 23-02-2019 03:55
Nebel, Klar  
Nebel, Klar  
   Wind: variiert 3.7 km/h
Wind: variiert 3.7 km/h
Temperatur: 4°C
Taupunkt: 4°C
Luftfeuchte: 100%
Luftdruck: 1036 hPa
Bewölkt: Klar
Sichtbarkeit: 2 km
Bewölkung: Klar
EBCV 230255Z AUTO VRB02KT 2200 BR NCD 04/04 Q1036 YLO
EHBK - Maastricht
Aktualisierung: 23-02-2019 03:55
Klar  
Klar  
   Wind: Osten 11.1 km/h
Wind: Osten 11.1 km/h
Temperatur: 4°C
Gefühlt: 1°C
Taupunkt: 4°C
Luftfeuchte: 100%
Luftdruck: 1037 hPa
Bewölkt: Klar
Sichtbarkeit: 7 km
Bewölkung: Klar
EHBK 230255Z AUTO 09006KT 7000 NCD 04/04 Q1037
ELLX - Luxemburg
Aktualisierung: 23-02-2019 03:50
Klar  
Klar  
   Wind: ONO 13 km/h
Wind: ONO 13 km/h
Temperatur: 3°C
Gefühlt: -1°C
Taupunkt: 2°C
Luftfeuchte: 93%
Luftdruck: 1036 hPa
Sichtbarkeit: More than 10 km
Bewölkung: Klar
ELLX 230250Z 06007KT CAVOK 03/02 Q1036 NOSIG
EBOS - Oostende
Aktualisierung: 23-02-2019 03:50
Nebel, Teilweise bewölkt  
Nebel, Teilweise bewölkt  
   Wind: OSO 14.8 km/h
Wind: OSO 14.8 km/h
Temperatur: 6°C
Gefühlt: 3°C
Taupunkt: 4°C
Luftfeuchte: 87%
Luftdruck: 1036 hPa
Bewölkt: Teilweise bewölkt
Sichtbarkeit: 3 km
Bewölkung: Teilweise bewölkt
EBOS 230250Z 12008KT 3400 BR NSC 06/04 Q1036 NOSIG

Script entwickelt von  Saratoga-weather.org Angepasst für das Template von  Weerstation Leuven

Sie finden unser Wetter-Infos auch auf:

netzwerkwettercom

European Weather Network

WeatherCloud

Weather Underground

AWEKAS

Citizen Weather Observer Program (CWOP)

HAMweather, WeatherForYou, PWS Weather

Von uns verwendete Ausrüstung:

Wetterstation
Davis VP2 Aktiv Plus 6163EU

Wetterprogramm
Weather Display

Davis VP2 Aktiv Plus  6163EU

Weather Display